Hilo, Hawaii
Current Conditions -  °F | °C
As of 6:53 AM on Saturday 25 Oct 2014 (Local Time) from PHTO Reporting Station
Broken Clouds Broken Clouds  
Wind Chill: 69°   Ceiling: 4400
Heat Index: 69°   Visibility: 10mi
Dew Point: 64°   Wind: 8mph
Humidity: 84%   Direction: 230°SW
Pressure: 30.04"   Gusts: NA
Location:  19.72°N, 155.08°W
Report Text: PHTO 251653Z 23007KT 10SM FEW032 BKN044 21/18 A3004 RMK AO2 RAE39 SLP170 P0001 T02060178
Loading
Personal Weather Stations






























Interactive Weather Map
Tropical Storm Tracking
New forecast layout! Learn more

10-Day Weather Forecast

Advertisements
Track Severe Weather on mobile